Pearce, Arizona
Current Conditions -  °F | °C
As of 1:56 PM on Saturday 25 Oct 2014 (Local Time) from KDUG Reporting Station
Clear Clear  
Wind Chill: 87°   Ceiling: Unl
Heat Index: 87°   Visibility: 10mi
Dew Point: 44°   Wind: 6mph
Humidity: 22%   Direction: 360°N
Pressure: 30.17"   Gusts: NA
Location:  31.91°N, 109.82°W
Report Text: KDUG 252056Z AUTO 36005KT 10SM CLR 31/07 A3017 RMK AO2 SLP155 T03060067 56021
Loading
Personal Weather Stations






























Interactive Weather Map
Tropical Storm Tracking
New forecast layout! Learn more

10-Day Weather Forecast

Advertisements
Track Severe Weather on mobile